Terminal Aerodrome Forecast
Issued by NWS

Home | Current Version | Previous Version | Text Only | Print | Product List | Glossary On
Versions: 1 2 3 4 5 6 7 8 9 10 11 12 13 14 15 16 17 18 19 20 21 22 23 24 25 26 27
000
FTUS41 KBTV 290530
TAFPBG
TAF
KPBG 290530Z 2906/3006 00000KT P6SM SKC
     FM291500 15007KT P6SM BKN150 BKN200
     FM292000 15010KT P6SM OVC100
     FM300000 15010G18KT P6SM OVC050
     FM300200 15010G18KT 6SM -SN OVC040=

USA.gov is the U.S. government's official web portal to all federal, state and local government web resources and services.